Terminal Aerodrome Forecast
Issued by NWS

Home | Current Version | Previous Version | Text Only | Print | Product List | Glossary Off
Versions: 1 2 3 4 5 6 7 8 9 10 11 12 13 14 15 16 17

000
FTUS43 KBIS 300500
TAFMOT
TAF
KMOT 300536Z 3006/0106 11010KT P6SM SCT015 OVC023
     FM300900 11010KT 4SM -SHRA SCT008 OVC015
     FM301200 12011KT P6SM OVC008
     FM301900 12013KT 4SM -SHRA SCT008 OVC012
     FM010300 36010KT 4SM -SHRA BR OVC008=

USA.gov is the U.S. government's official web portal to all federal, state and local government web resources and services.